sensor_id;sensor_type;location;lat;lon;timestamp;temperature;humidity
66740;DHT22;53653;52.188;8.602;2023-01-24T00:01:41;1.97;93.52
66740;DHT22;53653;52.188;8.602;2023-01-24T00:04:07;2.08;93.02
66740;DHT22;53653;52.188;8.602;2023-01-24T00:06:32;2.02;93.21
66740;DHT22;53653;52.188;8.602;2023-01-24T00:08:59;1.98;93.22
66740;DHT22;53653;52.188;8.602;2023-01-24T00:11:24;1.95;93.43
66740;DHT22;53653;52.188;8.602;2023-01-24T00:13:50;2.01;93.31
66740;DHT22;53653;52.188;8.602;2023-01-24T00:16:19;1.97;93.19
66740;DHT22;53653;52.188;8.602;2023-01-24T00:18:46;2.01;92.97
66740;DHT22;53653;52.188;8.602;2023-01-24T00:21:20;2.01;92.91
66740;DHT22;53653;52.188;8.602;2023-01-24T00:23:51;2.02;93.03
66740;DHT22;53653;52.188;8.602;2023-01-24T00:26:19;1.98;93.26
66740;DHT22;53653;52.188;8.602;2023-01-24T00:28:46;1.98;93.23
66740;DHT22;53653;52.188;8.602;2023-01-24T00:31:12;1.98;93.17
66740;DHT22;53653;52.188;8.602;2023-01-24T00:33:37;1.95;93.34
66740;DHT22;53653;52.188;8.602;2023-01-24T00:36:03;1.92;93.02
66740;DHT22;53653;52.188;8.602;2023-01-24T00:38:31;1.94;92.91
66740;DHT22;53653;52.188;8.602;2023-01-24T00:40:57;1.94;92.69
66740;DHT22;53653;52.188;8.602;2023-01-24T00:43:23;1.94;92.98
66740;DHT22;53653;52.188;8.602;2023-01-24T00:45:53;1.97;92.25
66740;DHT22;53653;52.188;8.602;2023-01-24T00:48:21;1.95;92.24
66740;DHT22;53653;52.188;8.602;2023-01-24T00:50:46;1.97;92.05
66740;DHT22;53653;52.188;8.602;2023-01-24T00:53:12;1.94;92.26
66740;DHT22;53653;52.188;8.602;2023-01-24T00:55:44;1.92;92.09
66740;DHT22;53653;52.188;8.602;2023-01-24T00:58:11;1.95;92.12
66740;DHT22;53653;52.188;8.602;2023-01-24T01:00:37;1.95;92.03
66740;DHT22;53653;52.188;8.602;2023-01-24T01:03:19;1.97;91.90
66740;DHT22;53653;52.188;8.602;2023-01-24T01:05:45;1.98;91.84
66740;DHT22;53653;52.188;8.602;2023-01-24T01:08:12;1.99;91.61
66740;DHT22;53653;52.188;8.602;2023-01-24T01:10:39;1.97;91.45
66740;DHT22;53653;52.188;8.602;2023-01-24T01:13:05;1.97;91.52
66740;DHT22;53653;52.188;8.602;2023-01-24T01:15:32;1.99;91.46
66740;DHT22;53653;52.188;8.602;2023-01-24T01:17:58;1.98;91.44
66740;DHT22;53653;52.188;8.602;2023-01-24T01:20:24;1.98;91.16
66740;DHT22;53653;52.188;8.602;2023-01-24T01:22:50;2.03;91.03
66740;DHT22;53653;52.188;8.602;2023-01-24T01:25:16;1.99;90.67
66740;DHT22;53653;52.188;8.602;2023-01-24T01:27:41;2.02;90.62
66740;DHT22;53653;52.188;8.602;2023-01-24T01:30:07;2.05;90.42
66740;DHT22;53653;52.188;8.602;2023-01-24T01:32:34;2.01;90.00
66740;DHT22;53653;52.188;8.602;2023-01-24T01:35:00;2.06;89.54
66740;DHT22;53653;52.188;8.602;2023-01-24T01:37:25;2.06;89.25
66740;DHT22;53653;52.188;8.602;2023-01-24T01:39:51;2.06;89.52
66740;DHT22;53653;52.188;8.602;2023-01-24T01:42:16;2.06;89.68
66740;DHT22;53653;52.188;8.602;2023-01-24T01:44:42;2.08;89.72
66740;DHT22;53653;52.188;8.602;2023-01-24T01:47:34;2.03;90.04
66740;DHT22;53653;52.188;8.602;2023-01-24T01:50:22;2.09;89.69
66740;DHT22;53653;52.188;8.602;2023-01-24T01:52:48;2.06;89.42
66740;DHT22;53653;52.188;8.602;2023-01-24T01:55:16;2.08;88.64
66740;DHT22;53653;52.188;8.602;2023-01-24T01:57:43;2.06;88.92
66740;DHT22;53653;52.188;8.602;2023-01-24T02:00:29;2.05;89.40
66740;DHT22;53653;52.188;8.602;2023-01-24T02:03:04;2.02;89.39
66740;DHT22;53653;52.188;8.602;2023-01-24T02:05:59;1.98;89.59
66740;DHT22;53653;52.188;8.602;2023-01-24T02:08:26;1.99;89.57
66740;DHT22;53653;52.188;8.602;2023-01-24T02:10:52;1.97;89.64
66740;DHT22;53653;52.188;8.602;2023-01-24T02:13:39;1.98;89.51
66740;DHT22;53653;52.188;8.602;2023-01-24T02:16:12;1.98;89.12
66740;DHT22;53653;52.188;8.602;2023-01-24T02:18:40;1.98;88.59
66740;DHT22;53653;52.188;8.602;2023-01-24T02:21:08;1.98;88.67
66740;DHT22;53653;52.188;8.602;2023-01-24T02:26:13;1.98;88.35
66740;DHT22;53653;52.188;8.602;2023-01-24T02:28:44;2.03;87.43
66740;DHT22;53653;52.188;8.602;2023-01-24T02:31:11;2.03;87.40
66740;DHT22;53653;52.188;8.602;2023-01-24T02:33:36;2.03;87.64
66740;DHT22;53653;52.188;8.602;2023-01-24T02:36:24;1.99;88.14
66740;DHT22;53653;52.188;8.602;2023-01-24T02:39:14;1.99;88.71
66740;DHT22;53653;52.188;8.602;2023-01-24T02:41:46;1.98;88.84
66740;DHT22;53653;52.188;8.602;2023-01-24T02:44:21;1.99;88.74
66740;DHT22;53653;52.188;8.602;2023-01-24T02:46:47;1.98;86.43
66740;DHT22;53653;52.188;8.602;2023-01-24T02:49:13;2.02;85.10
66740;DHT22;53653;52.188;8.602;2023-01-24T02:51:39;2.01;85.22
66740;DHT22;53653;52.188;8.602;2023-01-24T02:54:23;1.99;84.70
66740;DHT22;53653;52.188;8.602;2023-01-24T02:56:49;2.02;83.69
66740;DHT22;53653;52.188;8.602;2023-01-24T02:59:33;2.02;84.03
66740;DHT22;53653;52.188;8.602;2023-01-24T03:02:00;2.03;84.17
66740;DHT22;53653;52.188;8.602;2023-01-24T03:04:26;2.03;83.73
66740;DHT22;53653;52.188;8.602;2023-01-24T03:06:51;2.05;83.71
66740;DHT22;53653;52.188;8.602;2023-01-24T03:09:17;2.05;84.67
66740;DHT22;53653;52.188;8.602;2023-01-24T03:12:00;2.05;85.44
66740;DHT22;53653;52.188;8.602;2023-01-24T03:14:45;2.01;85.33
66740;DHT22;53653;52.188;8.602;2023-01-24T03:17:29;1.99;84.10
66740;DHT22;53653;52.188;8.602;2023-01-24T03:20:13;2.01;84.02
66740;DHT22;53653;52.188;8.602;2023-01-24T03:22:58;2.02;83.65
66740;DHT22;53653;52.188;8.602;2023-01-24T03:25:42;2.03;83.86
66740;DHT22;53653;52.188;8.602;2023-01-24T03:28:26;2.02;83.80
66740;DHT22;53653;52.188;8.602;2023-01-24T03:31:11;2.03;83.68
66740;DHT22;53653;52.188;8.602;2023-01-24T03:33:55;1.99;83.66
66740;DHT22;53653;52.188;8.602;2023-01-24T03:36:39;2.02;83.64
66740;DHT22;53653;52.188;8.602;2023-01-24T03:39:05;2.01;84.39
66740;DHT22;53653;52.188;8.602;2023-01-24T03:41:51;2.03;83.55
66740;DHT22;53653;52.188;8.602;2023-01-24T03:44:16;1.99;83.71
66740;DHT22;53653;52.188;8.602;2023-01-24T03:46:42;1.98;84.35
66740;DHT22;53653;52.188;8.602;2023-01-24T03:49:10;1.99;83.50
66740;DHT22;53653;52.188;8.602;2023-01-24T03:51:38;1.99;83.60
66740;DHT22;53653;52.188;8.602;2023-01-24T03:54:22;2.01;83.63
66740;DHT22;53653;52.188;8.602;2023-01-24T03:56:56;2.01;83.92
66740;DHT22;53653;52.188;8.602;2023-01-24T03:59:23;2.01;84.00
66740;DHT22;53653;52.188;8.602;2023-01-24T04:01:49;2.01;84.28
66740;DHT22;53653;52.188;8.602;2023-01-24T04:04:19;1.97;84.28
66740;DHT22;53653;52.188;8.602;2023-01-24T04:06:45;1.98;84.61
66740;DHT22;53653;52.188;8.602;2023-01-24T04:09:13;1.95;84.90
66740;DHT22;53653;52.188;8.602;2023-01-24T04:11:42;1.98;84.29
66740;DHT22;53653;52.188;8.602;2023-01-24T04:14:20;1.98;84.48
66740;DHT22;53653;52.188;8.602;2023-01-24T04:16:57;1.95;84.34
66740;DHT22;53653;52.188;8.602;2023-01-24T04:19:31;1.94;84.35
66740;DHT22;53653;52.188;8.602;2023-01-24T04:21:57;1.97;84.22
66740;DHT22;53653;52.188;8.602;2023-01-24T04:24:23;1.97;84.30
66740;DHT22;53653;52.188;8.602;2023-01-24T04:26:49;1.99;84.23
66740;DHT22;53653;52.188;8.602;2023-01-24T04:29:20;1.98;84.21
66740;DHT22;53653;52.188;8.602;2023-01-24T04:31:49;1.92;84.42
66740;DHT22;53653;52.188;8.602;2023-01-24T04:34:20;1.91;84.61
66740;DHT22;53653;52.188;8.602;2023-01-24T04:36:46;1.92;85.12
66740;DHT22;53653;52.188;8.602;2023-01-24T04:39:12;1.97;84.93
66740;DHT22;53653;52.188;8.602;2023-01-24T04:41:47;1.97;84.97
66740;DHT22;53653;52.188;8.602;2023-01-24T04:44:14;1.91;85.45
66740;DHT22;53653;52.188;8.602;2023-01-24T04:46:39;1.89;84.64
66740;DHT22;53653;52.188;8.602;2023-01-24T04:49:05;1.85;84.61
66740;DHT22;53653;52.188;8.602;2023-01-24T04:51:38;1.85;84.87
66740;DHT22;53653;52.188;8.602;2023-01-24T04:54:11;1.86;85.09
66740;DHT22;53653;52.188;8.602;2023-01-24T04:56:37;1.86;85.46
66740;DHT22;53653;52.188;8.602;2023-01-24T04:59:04;1.83;85.18
66740;DHT22;53653;52.188;8.602;2023-01-24T05:01:30;1.85;85.00
66740;DHT22;53653;52.188;8.602;2023-01-24T05:04:11;1.88;85.35
66740;DHT22;53653;52.188;8.602;2023-01-24T05:06:36;1.91;85.59
66740;DHT22;53653;52.188;8.602;2023-01-24T05:09:04;1.89;85.88
66740;DHT22;53653;52.188;8.602;2023-01-24T05:11:38;1.92;84.87
66740;DHT22;53653;52.188;8.602;2023-01-24T05:14:08;1.91;84.88
66740;DHT22;53653;52.188;8.602;2023-01-24T05:16:34;1.89;84.98
66740;DHT22;53653;52.188;8.602;2023-01-24T05:26:38;1.89;84.77
66740;DHT22;53653;52.188;8.602;2023-01-24T05:29:04;1.88;84.79
66740;DHT22;53653;52.188;8.602;2023-01-24T05:31:31;1.86;84.86
66740;DHT22;53653;52.188;8.602;2023-01-24T05:33:57;1.86;84.73
66740;DHT22;53653;52.188;8.602;2023-01-24T05:36:23;1.89;85.17
66740;DHT22;53653;52.188;8.602;2023-01-24T05:38:50;1.91;84.94
66740;DHT22;53653;52.188;8.602;2023-01-24T05:41:18;1.86;84.67
66740;DHT22;53653;52.188;8.602;2023-01-24T05:43:45;1.88;84.97
66740;DHT22;53653;52.188;8.602;2023-01-24T05:46:14;1.89;85.03
66740;DHT22;53653;52.188;8.602;2023-01-24T05:48:48;1.85;85.27
66740;DHT22;53653;52.188;8.602;2023-01-24T05:51:17;1.82;85.21
66740;DHT22;53653;52.188;8.602;2023-01-24T05:53:43;1.85;85.47
66740;DHT22;53653;52.188;8.602;2023-01-24T05:56:18;1.85;85.37
66740;DHT22;53653;52.188;8.602;2023-01-24T05:58:47;1.89;85.72
66740;DHT22;53653;52.188;8.602;2023-01-24T06:01:20;1.89;85.21
66740;DHT22;53653;52.188;8.602;2023-01-24T06:03:49;1.95;84.52
66740;DHT22;53653;52.188;8.602;2023-01-24T06:06:19;1.91;84.75
66740;DHT22;53653;52.188;8.602;2023-01-24T06:08:45;1.89;85.05
66740;DHT22;53653;52.188;8.602;2023-01-24T06:11:17;1.83;85.32
66740;DHT22;53653;52.188;8.602;2023-01-24T06:13:44;1.85;84.83
66740;DHT22;53653;52.188;8.602;2023-01-24T06:16:19;1.81;84.68
66740;DHT22;53653;52.188;8.602;2023-01-24T06:18:46;1.83;84.42
66740;DHT22;53653;52.188;8.602;2023-01-24T06:23:57;1.83;84.74
66740;DHT22;53653;52.188;8.602;2023-01-24T06:26:28;1.86;85.00
66740;DHT22;53653;52.188;8.602;2023-01-24T06:28:53;1.88;85.13
66740;DHT22;53653;52.188;8.602;2023-01-24T06:39:49;1.88;84.18
66740;DHT22;53653;52.188;8.602;2023-01-24T06:42:17;1.86;84.04
66740;DHT22;53653;52.188;8.602;2023-01-24T06:44:44;1.89;83.92
66740;DHT22;53653;52.188;8.602;2023-01-24T06:47:11;1.81;83.94
66740;DHT22;53653;52.188;8.602;2023-01-24T06:49:37;1.78;84.25
66740;DHT22;53653;52.188;8.602;2023-01-24T06:52:03;1.77;84.21
66740;DHT22;53653;52.188;8.602;2023-01-24T06:54:30;1.72;84.04
66740;DHT22;53653;52.188;8.602;2023-01-24T06:56:56;1.75;84.71
66740;DHT22;53653;52.188;8.602;2023-01-24T06:59:22;1.79;84.80
66740;DHT22;53653;52.188;8.602;2023-01-24T07:01:49;1.78;84.96
66740;DHT22;53653;52.188;8.602;2023-01-24T07:04:15;1.82;84.26
66740;DHT22;53653;52.188;8.602;2023-01-24T07:06:41;1.78;84.54
66740;DHT22;53653;52.188;8.602;2023-01-24T07:09:06;1.81;84.68
66740;DHT22;53653;52.188;8.602;2023-01-24T07:11:32;1.83;84.79
66740;DHT22;53653;52.188;8.602;2023-01-24T07:13:58;1.82;84.85
66740;DHT22;53653;52.188;8.602;2023-01-24T07:16:23;1.77;84.89
66740;DHT22;53653;52.188;8.602;2023-01-24T07:18:49;1.77;85.06
66740;DHT22;53653;52.188;8.602;2023-01-24T07:21:16;1.77;84.86
66740;DHT22;53653;52.188;8.602;2023-01-24T07:23:46;1.81;84.75
66740;DHT22;53653;52.188;8.602;2023-01-24T07:26:14;1.81;84.96
66740;DHT22;53653;52.188;8.602;2023-01-24T07:28:41;1.79;85.09
66740;DHT22;53653;52.188;8.602;2023-01-24T07:31:10;1.82;85.06
66740;DHT22;53653;52.188;8.602;2023-01-24T07:33:37;1.78;84.60
66740;DHT22;53653;52.188;8.602;2023-01-24T07:36:14;1.78;85.04
66740;DHT22;53653;52.188;8.602;2023-01-24T07:38:39;1.78;84.70
66740;DHT22;53653;52.188;8.602;2023-01-24T07:41:10;1.78;84.51
66740;DHT22;53653;52.188;8.602;2023-01-24T07:43:35;1.78;84.47
66740;DHT22;53653;52.188;8.602;2023-01-24T07:46:01;1.72;84.72
66740;DHT22;53653;52.188;8.602;2023-01-24T07:48:26;1.75;84.93
66740;DHT22;53653;52.188;8.602;2023-01-24T07:50:52;1.75;84.86
66740;DHT22;53653;52.188;8.602;2023-01-24T07:53:17;1.78;85.05
66740;DHT22;53653;52.188;8.602;2023-01-24T07:55:43;1.78;85.05
66740;DHT22;53653;52.188;8.602;2023-01-24T07:58:09;1.78;84.04
66740;DHT22;53653;52.188;8.602;2023-01-24T08:00:34;1.74;84.15
66740;DHT22;53653;52.188;8.602;2023-01-24T08:03:00;1.72;84.13
66740;DHT22;53653;52.188;8.602;2023-01-24T08:05:25;1.75;84.31
66740;DHT22;53653;52.188;8.602;2023-01-24T08:07:53;1.70;84.06
66740;DHT22;53653;52.188;8.602;2023-01-24T08:10:19;1.71;84.41
66740;DHT22;53653;52.188;8.602;2023-01-24T08:12:49;1.74;84.26
66740;DHT22;53653;52.188;8.602;2023-01-24T08:15:15;1.71;84.29
66740;DHT22;53653;52.188;8.602;2023-01-24T08:17:41;1.78;84.35
66740;DHT22;53653;52.188;8.602;2023-01-24T08:20:07;1.75;84.50
66740;DHT22;53653;52.188;8.602;2023-01-24T08:22:34;1.75;84.21
66740;DHT22;53653;52.188;8.602;2023-01-24T08:25:00;1.78;84.50
66740;DHT22;53653;52.188;8.602;2023-01-24T08:27:25;1.79;84.42
66740;DHT22;53653;52.188;8.602;2023-01-24T08:29:51;1.82;84.50
66740;DHT22;53653;52.188;8.602;2023-01-24T08:32:19;1.77;84.20
66740;DHT22;53653;52.188;8.602;2023-01-24T08:34:44;1.82;84.36
66740;DHT22;53653;52.188;8.602;2023-01-24T08:37:10;1.77;84.25
66740;DHT22;53653;52.188;8.602;2023-01-24T08:39:36;1.72;84.03
66740;DHT22;53653;52.188;8.602;2023-01-24T08:42:02;1.75;84.14
66740;DHT22;53653;52.188;8.602;2023-01-24T08:44:28;1.72;84.22
66740;DHT22;53653;52.188;8.602;2023-01-24T08:46:53;1.68;83.80
66740;DHT22;53653;52.188;8.602;2023-01-24T08:49:18;1.72;83.99
66740;DHT22;53653;52.188;8.602;2023-01-24T08:51:44;1.74;83.73
66740;DHT22;53653;52.188;8.602;2023-01-24T08:54:11;1.68;83.99
66740;DHT22;53653;52.188;8.602;2023-01-24T08:56:37;1.75;84.29
66740;DHT22;53653;52.188;8.602;2023-01-24T08:59:03;1.82;84.38
66740;DHT22;53653;52.188;8.602;2023-01-24T09:01:29;1.78;83.78
66740;DHT22;53653;52.188;8.602;2023-01-24T09:03:54;1.74;83.67
66740;DHT22;53653;52.188;8.602;2023-01-24T09:06:22;1.72;83.97
66740;DHT22;53653;52.188;8.602;2023-01-24T09:08:47;1.74;84.18
66740;DHT22;53653;52.188;8.602;2023-01-24T09:11:14;1.70;84.13
66740;DHT22;53653;52.188;8.602;2023-01-24T09:13:39;1.74;84.09
66740;DHT22;53653;52.188;8.602;2023-01-24T09:16:06;1.81;84.19
66740;DHT22;53653;52.188;8.602;2023-01-24T09:18:31;1.78;84.44
66740;DHT22;53653;52.188;8.602;2023-01-24T09:21:02;1.82;84.55
66740;DHT22;53653;52.188;8.602;2023-01-24T09:23:29;1.78;83.90
66740;DHT22;53653;52.188;8.602;2023-01-24T09:25:55;1.86;84.09
66740;DHT22;53653;52.188;8.602;2023-01-24T09:28:21;1.75;83.63
66740;DHT22;53653;52.188;8.602;2023-01-24T09:30:50;1.75;83.76
66740;DHT22;53653;52.188;8.602;2023-01-24T09:33:18;1.77;83.42
66740;DHT22;53653;52.188;8.602;2023-01-24T09:35:55;1.74;83.73
66740;DHT22;53653;52.188;8.602;2023-01-24T09:38:24;1.83;83.92
66740;DHT22;53653;52.188;8.602;2023-01-24T09:41:01;1.86;83.89
66740;DHT22;53653;52.188;8.602;2023-01-24T09:48:41;1.78;83.30
66740;DHT22;53653;52.188;8.602;2023-01-24T09:51:13;1.81;83.91
66740;DHT22;53653;52.188;8.602;2023-01-24T09:53:43;1.79;83.44
66740;DHT22;53653;52.188;8.602;2023-01-24T09:56:20;1.77;83.62
66740;DHT22;53653;52.188;8.602;2023-01-24T09:59:43;1.78;83.88
66740;DHT22;53653;52.188;8.602;2023-01-24T10:01:43;1.91;83.57
66740;DHT22;53653;52.188;8.602;2023-01-24T10:04:35;1.82;83.40
66740;DHT22;53653;52.188;8.602;2023-01-24T10:07:16;1.86;83.56
66740;DHT22;53653;52.188;8.602;2023-01-24T10:12:39;1.86;83.48
66740;DHT22;53653;52.188;8.602;2023-01-24T10:15:33;1.92;83.50
66740;DHT22;53653;52.188;8.602;2023-01-24T10:23:33;1.97;83.59
66740;DHT22;53653;52.188;8.602;2023-01-24T10:26:07;1.95;83.55
66740;DHT22;53653;52.188;8.602;2023-01-24T10:28:40;1.97;83.72
66740;DHT22;53653;52.188;8.602;2023-01-24T10:31:12;2.02;83.69
66740;DHT22;53653;52.188;8.602;2023-01-24T10:33:53;1.91;83.02
66740;DHT22;53653;52.188;8.602;2023-01-24T10:36:28;1.91;83.08
66740;DHT22;53653;52.188;8.602;2023-01-24T10:38:55;1.95;83.36
66740;DHT22;53653;52.188;8.602;2023-01-24T10:41:23;1.91;82.85
66740;DHT22;53653;52.188;8.602;2023-01-24T10:43:54;1.92;82.56
66740;DHT22;53653;52.188;8.602;2023-01-24T10:49:05;2.05;82.72
66740;DHT22;53653;52.188;8.602;2023-01-24T10:51:32;2.03;82.91
66740;DHT22;53653;52.188;8.602;2023-01-24T10:54:02;1.99;82.44
66740;DHT22;53653;52.188;8.602;2023-01-24T10:56:28;2.05;82.62
66740;DHT22;53653;52.188;8.602;2023-01-24T11:01:50;2.03;82.66
66740;DHT22;53653;52.188;8.602;2023-01-24T11:04:25;2.03;82.24
66740;DHT22;53653;52.188;8.602;2023-01-24T11:06:51;2.01;82.24
66740;DHT22;53653;52.188;8.602;2023-01-24T11:09:20;2.08;82.19
66740;DHT22;53653;52.188;8.602;2023-01-24T11:11:49;2.06;82.20
66740;DHT22;53653;52.188;8.602;2023-01-24T11:14:27;2.03;82.33
66740;DHT22;53653;52.188;8.602;2023-01-24T11:16:58;2.08;82.16
66740;DHT22;53653;52.188;8.602;2023-01-24T11:19:37;2.10;81.92
66740;DHT22;53653;52.188;8.602;2023-01-24T11:22:24;2.03;81.81
66740;DHT22;53653;52.188;8.602;2023-01-24T11:24:56;2.01;81.76
66740;DHT22;53653;52.188;8.602;2023-01-24T11:27:21;2.03;82.19
66740;DHT22;53653;52.188;8.602;2023-01-24T11:30:19;2.12;81.87
66740;DHT22;53653;52.188;8.602;2023-01-24T11:33:07;2.13;81.98
66740;DHT22;53653;52.188;8.602;2023-01-24T11:35:42;2.06;81.83
66740;DHT22;53653;52.188;8.602;2023-01-24T11:38:45;2.06;82.25
66740;DHT22;53653;52.188;8.602;2023-01-24T11:43:45;2.09;81.83
66740;DHT22;53653;52.188;8.602;2023-01-24T11:46:47;2.08;81.86
66740;DHT22;53653;52.188;8.602;2023-01-24T11:49:32;2.03;81.87
66740;DHT22;53653;52.188;8.602;2023-01-24T11:55:16;2.03;82.15
66740;DHT22;53653;52.188;8.602;2023-01-24T11:57:59;1.99;82.00
66740;DHT22;53653;52.188;8.602;2023-01-24T12:00:36;2.09;82.20
66740;DHT22;53653;52.188;8.602;2023-01-24T12:11:42;2.05;81.81
66740;DHT22;53653;52.188;8.602;2023-01-24T12:14:42;2.09;82.41
66740;DHT22;53653;52.188;8.602;2023-01-24T12:22:47;2.10;82.20
66740;DHT22;53653;52.188;8.602;2023-01-24T12:25:37;2.19;82.11
66740;DHT22;53653;52.188;8.602;2023-01-24T12:28:06;2.23;81.93
66740;DHT22;53653;52.188;8.602;2023-01-24T12:30:44;2.19;81.83
66740;DHT22;53653;52.188;8.602;2023-01-24T12:36:12;2.08;82.01
66740;DHT22;53653;52.188;8.602;2023-01-24T12:38:44;2.03;82.20
66740;DHT22;53653;52.188;8.602;2023-01-24T12:41:31;2.10;82.47
66740;DHT22;53653;52.188;8.602;2023-01-24T12:44:22;2.03;82.23
66740;DHT22;53653;52.188;8.602;2023-01-24T12:52:52;2.19;82.59
66740;DHT22;53653;52.188;8.602;2023-01-24T12:55:26;2.22;82.52
66740;DHT22;53653;52.188;8.602;2023-01-24T12:58:01;2.23;82.44
66740;DHT22;53653;52.188;8.602;2023-01-24T13:00:34;2.13;82.18
66740;DHT22;53653;52.188;8.602;2023-01-24T13:06:02;1.98;82.74
66740;DHT22;53653;52.188;8.602;2023-01-24T13:08:49;2.02;82.93
66740;DHT22;53653;52.188;8.602;2023-01-24T13:11:23;2.06;82.50
66740;DHT22;53653;52.188;8.602;2023-01-24T13:16:48;1.97;83.24
66740;DHT22;53653;52.188;8.602;2023-01-24T13:22:11;1.97;82.48
66740;DHT22;53653;52.188;8.602;2023-01-24T13:33:23;2.16;82.50
66740;DHT22;53653;52.188;8.602;2023-01-24T13:35:53;2.09;82.83
66740;DHT22;53653;52.188;8.602;2023-01-24T13:38:27;2.05;82.80
66740;DHT22;53653;52.188;8.602;2023-01-24T13:40:57;1.99;82.80
66740;DHT22;53653;52.188;8.602;2023-01-24T13:46:15;2.09;83.00
66740;DHT22;53653;52.188;8.602;2023-01-24T13:54:19;1.85;82.97
66740;DHT22;53653;52.188;8.602;2023-01-24T13:59:32;1.98;82.98
66740;DHT22;53653;52.188;8.602;2023-01-24T14:02:00;1.83;83.58
66740;DHT22;53653;52.188;8.602;2023-01-24T14:04:39;1.91;83.47
66740;DHT22;53653;52.188;8.602;2023-01-24T14:07:44;1.82;83.71
66740;DHT22;53653;52.188;8.602;2023-01-24T14:10:10;1.89;83.54
66740;DHT22;53653;52.188;8.602;2023-01-24T14:12:38;1.86;83.95
66740;DHT22;53653;52.188;8.602;2023-01-24T14:17:57;1.86;83.69
66740;DHT22;53653;52.188;8.602;2023-01-24T14:20:36;1.82;83.67
66740;DHT22;53653;52.188;8.602;2023-01-24T14:23:14;1.81;84.19
66740;DHT22;53653;52.188;8.602;2023-01-24T14:25:49;1.68;83.71
66740;DHT22;53653;52.188;8.602;2023-01-24T14:28:31;1.70;84.23
66740;DHT22;53653;52.188;8.602;2023-01-24T14:31:19;1.78;84.18
66740;DHT22;53653;52.188;8.602;2023-01-24T14:34:05;1.68;84.24
66740;DHT22;53653;52.188;8.602;2023-01-24T14:36:36;1.71;84.59
66740;DHT22;53653;52.188;8.602;2023-01-24T14:39:33;1.72;84.66
66740;DHT22;53653;52.188;8.602;2023-01-24T14:42:00;1.78;84.34
66740;DHT22;53653;52.188;8.602;2023-01-24T14:44:29;1.79;84.80
66740;DHT22;53653;52.188;8.602;2023-01-24T14:46:58;1.70;84.31
66740;DHT22;53653;52.188;8.602;2023-01-24T14:49:33;1.62;84.45
66740;DHT22;53653;52.188;8.602;2023-01-24T14:52:00;1.64;84.81
66740;DHT22;53653;52.188;8.602;2023-01-24T14:54:27;1.65;84.90
66740;DHT22;53653;52.188;8.602;2023-01-24T14:56:52;1.74;85.04
66740;DHT22;53653;52.188;8.602;2023-01-24T14:59:19;1.62;84.75
66740;DHT22;53653;52.188;8.602;2023-01-24T15:01:49;1.64;84.91
66740;DHT22;53653;52.188;8.602;2023-01-24T15:04:34;1.50;84.75
66740;DHT22;53653;52.188;8.602;2023-01-24T15:07:13;1.57;84.73
66740;DHT22;53653;52.188;8.602;2023-01-24T15:09:40;1.54;84.58
66740;DHT22;53653;52.188;8.602;2023-01-24T15:14:50;1.48;84.67
66740;DHT22;53653;52.188;8.602;2023-01-24T15:17:21;1.41;85.11
66740;DHT22;53653;52.188;8.602;2023-01-24T15:19:49;1.29;85.18
66740;DHT22;53653;52.188;8.602;2023-01-24T15:22:22;1.29;85.59
66740;DHT22;53653;52.188;8.602;2023-01-24T15:24:57;1.31;85.83
66740;DHT22;53653;52.188;8.602;2023-01-24T15:30:21;1.31;85.41
66740;DHT22;53653;52.188;8.602;2023-01-24T15:38:18;1.33;86.12
66740;DHT22;53653;52.188;8.602;2023-01-24T15:43:18;1.23;86.09
66740;DHT22;53653;52.188;8.602;2023-01-24T15:46:03;1.29;86.27
66740;DHT22;53653;52.188;8.602;2023-01-24T15:49:00;1.34;86.22
66740;DHT22;53653;52.188;8.602;2023-01-24T15:51:34;1.30;86.29
66740;DHT22;53653;52.188;8.602;2023-01-24T15:54:01;1.31;86.41
66740;DHT22;53653;52.188;8.602;2023-01-24T15:56:27;1.34;86.27
66740;DHT22;53653;52.188;8.602;2023-01-24T15:58:54;1.36;86.28
66740;DHT22;53653;52.188;8.602;2023-01-24T16:01:20;1.34;86.48
66740;DHT22;53653;52.188;8.602;2023-01-24T16:03:51;1.37;86.58
66740;DHT22;53653;52.188;8.602;2023-01-24T16:06:53;1.31;86.49
66740;DHT22;53653;52.188;8.602;2023-01-24T16:09:19;1.27;86.28
66740;DHT22;53653;52.188;8.602;2023-01-24T16:11:45;1.30;86.34
66740;DHT22;53653;52.188;8.602;2023-01-24T16:14:21;1.30;86.60
66740;DHT22;53653;52.188;8.602;2023-01-24T16:16:49;1.27;86.65
66740;DHT22;53653;52.188;8.602;2023-01-24T16:19:19;1.27;86.52
66740;DHT22;53653;52.188;8.602;2023-01-24T16:21:46;1.29;86.84
66740;DHT22;53653;52.188;8.602;2023-01-24T16:24:12;1.27;86.72
66740;DHT22;53653;52.188;8.602;2023-01-24T16:26:41;1.27;86.90
66740;DHT22;53653;52.188;8.602;2023-01-24T16:29:15;1.24;87.19
66740;DHT22;53653;52.188;8.602;2023-01-24T16:31:42;1.22;87.12
66740;DHT22;53653;52.188;8.602;2023-01-24T16:34:07;1.09;87.07
66740;DHT22;53653;52.188;8.602;2023-01-24T16:36:34;1.10;87.42
66740;DHT22;53653;52.188;8.602;2023-01-24T16:39:03;1.13;87.22
66740;DHT22;53653;52.188;8.602;2023-01-24T16:41:29;1.03;87.00
66740;DHT22;53653;52.188;8.602;2023-01-24T16:43:55;1.03;87.31
66740;DHT22;53653;52.188;8.602;2023-01-24T16:46:21;0.97;87.12
66740;DHT22;53653;52.188;8.602;2023-01-24T16:48:49;0.96;87.42
66740;DHT22;53653;52.188;8.602;2023-01-24T16:51:17;0.93;87.24
66740;DHT22;53653;52.188;8.602;2023-01-24T16:53:44;0.92;87.20
66740;DHT22;53653;52.188;8.602;2023-01-24T16:56:11;0.92;87.03
66740;DHT22;53653;52.188;8.602;2023-01-24T16:58:37;0.91;86.97
66740;DHT22;53653;52.188;8.602;2023-01-24T17:01:07;0.93;87.12
66740;DHT22;53653;52.188;8.602;2023-01-24T17:03:35;0.91;86.95
66740;DHT22;53653;52.188;8.602;2023-01-24T17:06:05;0.86;86.98
66740;DHT22;53653;52.188;8.602;2023-01-24T17:08:30;0.83;87.14
66740;DHT22;53653;52.188;8.602;2023-01-24T17:11:02;0.81;87.05
66740;DHT22;53653;52.188;8.602;2023-01-24T17:13:29;0.82;87.28
66740;DHT22;53653;52.188;8.602;2023-01-24T17:15:54;0.83;87.66
66740;DHT22;53653;52.188;8.602;2023-01-24T17:18:20;0.76;87.20
66740;DHT22;53653;52.188;8.602;2023-01-24T17:20:45;0.75;87.42
66740;DHT22;53653;52.188;8.602;2023-01-24T17:23:10;0.73;87.60
66740;DHT22;53653;52.188;8.602;2023-01-24T17:25:36;0.76;87.67
66740;DHT22;53653;52.188;8.602;2023-01-24T17:28:02;0.72;87.51
66740;DHT22;53653;52.188;8.602;2023-01-24T17:30:29;0.78;87.50
66740;DHT22;53653;52.188;8.602;2023-01-24T17:32:54;0.81;87.55
66740;DHT22;53653;52.188;8.602;2023-01-24T17:35:20;0.86;87.30
66740;DHT22;53653;52.188;8.602;2023-01-24T17:37:45;0.72;87.13
66740;DHT22;53653;52.188;8.602;2023-01-24T17:40:11;0.73;87.22
66740;DHT22;53653;52.188;8.602;2023-01-24T17:42:36;0.66;87.39
66740;DHT22;53653;52.188;8.602;2023-01-24T17:45:02;0.60;87.55
66740;DHT22;53653;52.188;8.602;2023-01-24T17:47:28;0.62;87.71
66740;DHT22;53653;52.188;8.602;2023-01-24T17:49:54;0.66;87.49
66740;DHT22;53653;52.188;8.602;2023-01-24T17:52:20;0.66;87.33
66740;DHT22;53653;52.188;8.602;2023-01-24T17:54:45;0.62;87.40
66740;DHT22;53653;52.188;8.602;2023-01-24T17:57:11;0.65;87.28
66740;DHT22;53653;52.188;8.602;2023-01-24T17:59:36;0.62;87.22
66740;DHT22;53653;52.188;8.602;2023-01-24T18:02:02;0.61;87.40